createdAt,value
2019-02-19T00:07:31.058Z,125.70
2019-02-19T00:17:36.530Z,93.00
2019-02-19T00:27:42.031Z,80.67
2019-02-19T00:37:47.536Z,79.50
2019-02-19T00:47:53.166Z,82.07
2019-02-19T00:57:58.634Z,80.00
2019-02-19T01:08:04.158Z,75.93
2019-02-19T01:18:09.834Z,74.17
2019-02-19T01:28:15.400Z,74.80
2019-02-19T01:38:20.991Z,72.23
2019-02-19T01:48:26.602Z,71.03
2019-02-19T01:58:32.191Z,72.67
2019-02-19T02:08:37.724Z,63.77
2019-02-19T02:18:43.271Z,61.50
2019-02-19T02:28:48.807Z,61.30
2019-02-19T02:38:54.279Z,62.80
2019-02-19T02:48:59.754Z,62.60
2019-02-19T02:59:05.232Z,65.43
2019-02-19T03:09:10.796Z,69.07
2019-02-19T03:19:16.920Z,98.93
2019-02-19T03:29:22.439Z,113.67
2019-02-19T03:39:27.917Z,105.13
2019-02-19T03:49:33.408Z,97.57
2019-02-19T03:59:38.882Z,98.67
2019-02-19T04:09:44.351Z,87.30
2019-02-19T04:19:49.946Z,87.07
2019-02-19T04:29:55.431Z,70.20
2019-02-19T04:40:01.735Z,74.77
2019-02-19T04:50:09.128Z,77.33
2019-02-19T05:00:15.128Z,81.37
2019-02-19T05:10:20.661Z,88.73
2019-02-19T05:20:26.191Z,88.70
2019-02-19T05:30:31.763Z,89.50
2019-02-19T05:40:37.277Z,87.37
2019-02-19T05:50:42.839Z,122.97
2019-02-19T06:00:48.880Z,170.53
2019-02-19T06:10:54.420Z,121.63
2019-02-19T06:20:59.951Z,128.63
2019-02-19T06:31:05.523Z,125.27
2019-02-19T06:41:11.000Z,124.87
2019-02-19T06:51:16.477Z,130.73
2019-02-19T07:01:23.545Z,160.17
2019-02-19T07:11:29.039Z,129.53
2019-02-19T07:21:34.571Z,141.20
2019-02-19T07:31:40.073Z,136.07
2019-02-19T07:41:45.615Z,125.43
2019-02-19T07:51:51.310Z,112.00
2019-02-19T08:01:56.921Z,108.50
2019-02-19T08:12:02.684Z,128.73
2019-02-19T08:22:08.185Z,157.40
2019-02-19T08:32:13.650Z,156.77
2019-02-19T08:42:19.174Z,112.43
2019-02-19T08:52:24.671Z,94.17
2019-02-19T09:02:30.187Z,80.13
2019-02-19T09:12:35.668Z,57.47
2019-02-19T09:22:41.168Z,54.23
2019-02-19T09:32:46.653Z,57.87
2019-02-19T09:42:52.151Z,55.57
2019-02-19T09:53:00.099Z,56.23
2019-02-19T10:03:04.689Z,49.53
2019-02-19T10:13:10.169Z,57.50
2019-02-19T10:23:15.673Z,61.37
2019-02-19T10:33:21.279Z,58.00
2019-02-19T10:43:26.951Z,60.43
2019-02-19T10:53:32.448Z,64.43
2019-02-19T11:03:37.931Z,72.77
2019-02-19T11:13:43.385Z,63.37
2019-02-19T11:23:48.913Z,65.97
2019-02-19T11:33:54.445Z,72.17
2019-02-19T11:44:00.032Z,61.07
2019-02-19T11:54:05.671Z,66.63
2019-02-19T12:04:11.319Z,66.57
2019-02-19T12:14:16.833Z,62.90
2019-02-19T12:24:22.472Z,71.47
2019-02-19T12:34:28.080Z,64.83
2019-02-19T12:44:33.685Z,60.90
2019-02-19T12:54:39.192Z,59.70
2019-02-19T13:04:44.795Z,63.27
2019-02-19T13:14:50.273Z,64.53
2019-02-19T13:24:55.796Z,66.60
2019-02-19T13:35:01.312Z,67.67
2019-02-19T13:45:09.947Z,63.93
2019-02-19T13:55:17.128Z,68.63
2019-02-19T14:05:22.639Z,67.80
2019-02-19T14:15:33.366Z,70.33
2019-02-19T14:25:40.454Z,76.33
2019-02-19T14:36:03.839Z,66.03
2019-02-19T14:46:10.975Z,87.53
2019-02-19T14:56:30.056Z,77.17
2019-02-19T15:06:55.241Z,85.10
2019-02-19T15:17:08.402Z,86.83
2019-02-19T15:27:31.512Z,96.07
2019-02-19T15:37:53.926Z,90.63
2019-02-19T15:48:01.001Z,93.90
2019-02-19T15:58:08.128Z,102.93
2019-02-19T16:08:21.241Z,106.50
2019-02-19T16:18:34.393Z,113.57
2019-02-19T16:28:41.800Z,122.80
2019-02-19T16:38:55.433Z,126.87
2019-02-19T16:49:08.558Z,135.33
2019-02-19T16:59:18.726Z,127.67
2019-02-19T17:09:29.255Z,134.70
2019-02-19T17:19:36.623Z,140.23
2019-02-19T17:29:59.235Z,151.87
2019-02-19T17:40:08.647Z,138.90
2019-02-19T17:50:16.708Z,168.30
2019-02-19T18:00:24.402Z,184.57
2019-02-19T18:10:50.359Z,171.80
2019-02-19T18:20:56.235Z,163.63
2019-02-19T18:31:13.410Z,157.93
2019-02-19T18:41:19.386Z,169.13
2019-02-19T18:51:25.433Z,169.87
2019-02-19T19:01:33.143Z,160.73
2019-02-19T19:11:39.183Z,144.63
2019-02-19T19:21:44.964Z,153.17
2019-02-19T19:31:50.917Z,155.47
2019-02-19T19:41:56.942Z,154.97
2019-02-19T19:52:02.889Z,152.20
2019-02-19T20:02:08.875Z,145.93
2019-02-19T20:12:17.865Z,159.53
2019-02-19T20:22:25.605Z,133.00
2019-02-19T20:32:31.673Z,118.17
2019-02-19T20:42:46.697Z,162.53
2019-02-19T20:52:53.676Z,169.37
2019-02-19T21:03:00.837Z,145.80
2019-02-19T21:13:06.983Z,187.17
2019-02-19T21:23:13.031Z,196.50
2019-02-19T21:33:19.049Z,196.57
2019-02-19T21:43:25.887Z,166.13
2019-02-19T21:53:31.920Z,152.10
2019-02-19T22:03:37.672Z,119.93
2019-02-19T22:13:43.280Z,154.83
2019-02-19T22:23:48.841Z,162.40
2019-02-19T22:33:54.574Z,106.50
2019-02-19T22:44:00.059Z,85.50
2019-02-19T22:54:10.148Z,89.40
2019-02-19T23:04:15.684Z,81.87
2019-02-19T23:14:21.191Z,64.97
2019-02-19T23:24:26.763Z,60.43
2019-02-19T23:34:32.286Z,58.67
2019-02-19T23:44:38.281Z,57.87
2019-02-19T23:54:43.765Z,76.40
